sensor_id;sensor_type;location;lat;lon;timestamp;temperature;humidity
1786;DHT22;890;48.158;11.540;2024-02-21T00:02:16;7.30;74.90
1786;DHT22;890;48.158;11.540;2024-02-21T00:04:43;7.30;74.80
1786;DHT22;890;48.158;11.540;2024-02-21T00:07:09;7.20;75.50
1786;DHT22;890;48.158;11.540;2024-02-21T00:09:34;7.20;75.00
1786;DHT22;890;48.158;11.540;2024-02-21T00:12:00;7.40;75.20
1786;DHT22;890;48.158;11.540;2024-02-21T00:14:26;7.30;75.10
1786;DHT22;890;48.158;11.540;2024-02-21T00:16:52;7.30;75.10
1786;DHT22;890;48.158;11.540;2024-02-21T00:19:17;7.30;75.20
1786;DHT22;890;48.158;11.540;2024-02-21T00:21:43;7.30;75.10
1786;DHT22;890;48.158;11.540;2024-02-21T00:24:08;7.30;75.20
1786;DHT22;890;48.158;11.540;2024-02-21T00:26:34;7.30;75.20
1786;DHT22;890;48.158;11.540;2024-02-21T00:29:00;7.30;75.10
1786;DHT22;890;48.158;11.540;2024-02-21T00:31:25;7.30;75.20
1786;DHT22;890;48.158;11.540;2024-02-21T00:33:51;7.30;75.40
1786;DHT22;890;48.158;11.540;2024-02-21T00:36:16;7.20;75.40
1786;DHT22;890;48.158;11.540;2024-02-21T00:38:42;7.30;75.40
1786;DHT22;890;48.158;11.540;2024-02-21T00:41:08;7.30;75.40
1786;DHT22;890;48.158;11.540;2024-02-21T00:43:33;7.30;75.30
1786;DHT22;890;48.158;11.540;2024-02-21T00:45:59;7.40;75.50
1786;DHT22;890;48.158;11.540;2024-02-21T00:48:25;7.10;75.40
1786;DHT22;890;48.158;11.540;2024-02-21T00:50:50;7.00;75.50
1786;DHT22;890;48.158;11.540;2024-02-21T00:53:17;7.00;75.60
1786;DHT22;890;48.158;11.540;2024-02-21T00:55:42;6.90;75.60
1786;DHT22;890;48.158;11.540;2024-02-21T00:58:09;6.90;75.90
1786;DHT22;890;48.158;11.540;2024-02-21T01:00:34;6.90;76.10
1786;DHT22;890;48.158;11.540;2024-02-21T01:03:00;6.90;76.10
1786;DHT22;890;48.158;11.540;2024-02-21T01:05:25;6.80;76.10
1786;DHT22;890;48.158;11.540;2024-02-21T01:07:52;6.90;76.20
1786;DHT22;890;48.158;11.540;2024-02-21T01:10:18;6.90;76.20
1786;DHT22;890;48.158;11.540;2024-02-21T01:12:44;6.90;76.20
1786;DHT22;890;48.158;11.540;2024-02-21T01:15:09;6.90;76.20
1786;DHT22;890;48.158;11.540;2024-02-21T01:17:35;6.90;76.50
1786;DHT22;890;48.158;11.540;2024-02-21T01:20:02;6.90;76.40
1786;DHT22;890;48.158;11.540;2024-02-21T01:22:28;6.90;76.50
1786;DHT22;890;48.158;11.540;2024-02-21T01:24:54;7.00;76.60
1786;DHT22;890;48.158;11.540;2024-02-21T01:27:19;7.00;76.60
1786;DHT22;890;48.158;11.540;2024-02-21T01:29:46;6.90;76.50
1786;DHT22;890;48.158;11.540;2024-02-21T01:32:13;7.00;76.60
1786;DHT22;890;48.158;11.540;2024-02-21T01:34:38;7.10;76.80
1786;DHT22;890;48.158;11.540;2024-02-21T01:37:04;7.10;76.90
1786;DHT22;890;48.158;11.540;2024-02-21T01:39:32;7.10;76.80
1786;DHT22;890;48.158;11.540;2024-02-21T01:41:58;7.10;76.70
1786;DHT22;890;48.158;11.540;2024-02-21T01:44:24;7.20;76.70
1786;DHT22;890;48.158;11.540;2024-02-21T01:46:50;7.20;76.70
1786;DHT22;890;48.158;11.540;2024-02-21T01:49:17;7.20;76.60
1786;DHT22;890;48.158;11.540;2024-02-21T01:51:44;7.20;76.60
1786;DHT22;890;48.158;11.540;2024-02-21T01:54:12;7.10;76.50
1786;DHT22;890;48.158;11.540;2024-02-21T01:56:39;7.10;76.60
1786;DHT22;890;48.158;11.540;2024-02-21T01:59:04;7.10;76.60
1786;DHT22;890;48.158;11.540;2024-02-21T02:01:30;7.10;76.60
1786;DHT22;890;48.158;11.540;2024-02-21T02:03:56;7.20;76.70
1786;DHT22;890;48.158;11.540;2024-02-21T02:06:22;7.20;76.70
1786;DHT22;890;48.158;11.540;2024-02-21T02:08:48;7.20;76.70
1786;DHT22;890;48.158;11.540;2024-02-21T02:11:14;7.20;76.70
1786;DHT22;890;48.158;11.540;2024-02-21T02:13:40;7.20;76.70
1786;DHT22;890;48.158;11.540;2024-02-21T02:16:06;7.30;76.80
1786;DHT22;890;48.158;11.540;2024-02-21T02:18:32;7.40;76.90
1786;DHT22;890;48.158;11.540;2024-02-21T02:20:57;7.30;76.80
1786;DHT22;890;48.158;11.540;2024-02-21T02:23:33;7.30;76.80
1786;DHT22;890;48.158;11.540;2024-02-21T02:25:59;7.20;76.70
1786;DHT22;890;48.158;11.540;2024-02-21T02:28:24;7.30;76.80
1786;DHT22;890;48.158;11.540;2024-02-21T02:30:50;7.30;76.80
1786;DHT22;890;48.158;11.540;2024-02-21T02:33:16;7.30;76.90
1786;DHT22;890;48.158;11.540;2024-02-21T02:35:45;7.30;76.80
1786;DHT22;890;48.158;11.540;2024-02-21T02:38:11;7.30;76.80
1786;DHT22;890;48.158;11.540;2024-02-21T02:40:38;7.20;76.80
1786;DHT22;890;48.158;11.540;2024-02-21T02:43:05;7.20;76.80
1786;DHT22;890;48.158;11.540;2024-02-21T02:45:31;7.30;76.90
1786;DHT22;890;48.158;11.540;2024-02-21T02:47:57;7.20;76.60
1786;DHT22;890;48.158;11.540;2024-02-21T02:50:24;7.20;76.70
1786;DHT22;890;48.158;11.540;2024-02-21T02:52:49;7.30;76.90
1786;DHT22;890;48.158;11.540;2024-02-21T02:55:15;7.20;76.80
1786;DHT22;890;48.158;11.540;2024-02-21T02:57:41;7.20;76.80
1786;DHT22;890;48.158;11.540;2024-02-21T03:00:08;7.20;76.80
1786;DHT22;890;48.158;11.540;2024-02-21T03:02:35;7.10;76.90
1786;DHT22;890;48.158;11.540;2024-02-21T03:05:01;7.10;76.90
1786;DHT22;890;48.158;11.540;2024-02-21T03:07:36;7.10;77.00
1786;DHT22;890;48.158;11.540;2024-02-21T03:10:01;7.00;76.90
1786;DHT22;890;48.158;11.540;2024-02-21T03:12:27;7.00;76.80
1786;DHT22;890;48.158;11.540;2024-02-21T03:14:54;6.90;76.70
1786;DHT22;890;48.158;11.540;2024-02-21T03:17:20;6.80;76.80
1786;DHT22;890;48.158;11.540;2024-02-21T03:19:46;6.80;77.00
1786;DHT22;890;48.158;11.540;2024-02-21T03:22:11;6.80;77.10
1786;DHT22;890;48.158;11.540;2024-02-21T03:24:37;6.80;77.10
1786;DHT22;890;48.158;11.540;2024-02-21T03:27:03;6.80;77.10
1786;DHT22;890;48.158;11.540;2024-02-21T03:29:28;6.90;77.30
1786;DHT22;890;48.158;11.540;2024-02-21T03:31:55;6.90;77.30
1786;DHT22;890;48.158;11.540;2024-02-21T03:34:20;7.00;77.20
1786;DHT22;890;48.158;11.540;2024-02-21T03:36:46;7.00;77.10
1786;DHT22;890;48.158;11.540;2024-02-21T03:39:12;7.00;77.10
1786;DHT22;890;48.158;11.540;2024-02-21T03:41:37;7.00;77.10
1786;DHT22;890;48.158;11.540;2024-02-21T03:44:03;7.00;77.10
1786;DHT22;890;48.158;11.540;2024-02-21T03:46:30;7.00;77.00
1786;DHT22;890;48.158;11.540;2024-02-21T03:48:56;7.00;77.20
1786;DHT22;890;48.158;11.540;2024-02-21T03:51:22;7.10;77.20
1786;DHT22;890;48.158;11.540;2024-02-21T03:53:48;7.10;77.20
1786;DHT22;890;48.158;11.540;2024-02-21T03:56:13;7.10;77.10
1786;DHT22;890;48.158;11.540;2024-02-21T03:58:39;7.10;76.90
1786;DHT22;890;48.158;11.540;2024-02-21T04:01:05;7.00;77.00
1786;DHT22;890;48.158;11.540;2024-02-21T04:03:30;7.00;77.00
1786;DHT22;890;48.158;11.540;2024-02-21T04:05:56;7.10;77.70
1786;DHT22;890;48.158;11.540;2024-02-21T04:08:23;7.10;77.00
1786;DHT22;890;48.158;11.540;2024-02-21T04:10:48;7.10;77.10
1786;DHT22;890;48.158;11.540;2024-02-21T04:13:14;7.10;77.00
1786;DHT22;890;48.158;11.540;2024-02-21T04:15:40;7.10;76.90
1786;DHT22;890;48.158;11.540;2024-02-21T04:18:06;7.10;76.80
1786;DHT22;890;48.158;11.540;2024-02-21T04:20:31;7.20;76.80
1786;DHT22;890;48.158;11.540;2024-02-21T04:22:57;7.20;76.80
1786;DHT22;890;48.158;11.540;2024-02-21T04:25:23;7.20;76.80
1786;DHT22;890;48.158;11.540;2024-02-21T04:27:49;7.30;76.90
1786;DHT22;890;48.158;11.540;2024-02-21T04:30:15;7.10;76.70
1786;DHT22;890;48.158;11.540;2024-02-21T04:32:41;7.10;76.60
1786;DHT22;890;48.158;11.540;2024-02-21T04:35:07;7.20;76.60
1786;DHT22;890;48.158;11.540;2024-02-21T04:37:33;7.20;76.40
1786;DHT22;890;48.158;11.540;2024-02-21T04:39:59;7.10;76.60
1786;DHT22;890;48.158;11.540;2024-02-21T04:42:24;7.10;76.70
1786;DHT22;890;48.158;11.540;2024-02-21T04:44:50;7.10;76.70
1786;DHT22;890;48.158;11.540;2024-02-21T04:47:16;7.00;76.40
1786;DHT22;890;48.158;11.540;2024-02-21T04:49:41;7.10;76.50
1786;DHT22;890;48.158;11.540;2024-02-21T04:52:09;7.00;76.40
1786;DHT22;890;48.158;11.540;2024-02-21T04:54:34;7.00;76.40
1786;DHT22;890;48.158;11.540;2024-02-21T04:57:03;6.90;76.40
1786;DHT22;890;48.158;11.540;2024-02-21T04:59:28;6.80;76.30
1786;DHT22;890;48.158;11.540;2024-02-21T05:01:55;6.70;76.20
1786;DHT22;890;48.158;11.540;2024-02-21T05:04:20;6.70;76.30
1786;DHT22;890;48.158;11.540;2024-02-21T05:06:46;6.50;76.10
1786;DHT22;890;48.158;11.540;2024-02-21T05:09:12;6.40;76.30
1786;DHT22;890;48.158;11.540;2024-02-21T05:11:38;6.40;76.50
1786;DHT22;890;48.158;11.540;2024-02-21T05:14:04;6.40;76.70
1786;DHT22;890;48.158;11.540;2024-02-21T05:16:30;6.30;76.60
1786;DHT22;890;48.158;11.540;2024-02-21T05:18:56;6.30;76.70
1786;DHT22;890;48.158;11.540;2024-02-21T05:21:25;6.20;76.50
1786;DHT22;890;48.158;11.540;2024-02-21T05:23:51;6.20;76.70
1786;DHT22;890;48.158;11.540;2024-02-21T05:26:27;6.20;76.70
1786;DHT22;890;48.158;11.540;2024-02-21T05:28:53;6.20;76.80
1786;DHT22;890;48.158;11.540;2024-02-21T05:31:19;6.20;76.70
1786;DHT22;890;48.158;11.540;2024-02-21T05:33:45;6.20;76.70
1786;DHT22;890;48.158;11.540;2024-02-21T05:36:11;6.20;76.70
1786;DHT22;890;48.158;11.540;2024-02-21T05:38:37;6.20;76.70
1786;DHT22;890;48.158;11.540;2024-02-21T05:41:03;6.30;76.90
1786;DHT22;890;48.158;11.540;2024-02-21T05:43:29;6.40;77.10
1786;DHT22;890;48.158;11.540;2024-02-21T05:45:55;6.40;76.90
1786;DHT22;890;48.158;11.540;2024-02-21T05:48:22;6.50;77.00
1786;DHT22;890;48.158;11.540;2024-02-21T05:50:48;6.40;77.00
1786;DHT22;890;48.158;11.540;2024-02-21T05:53:14;6.40;77.00
1786;DHT22;890;48.158;11.540;2024-02-21T05:55:40;6.50;76.90
1786;DHT22;890;48.158;11.540;2024-02-21T05:58:05;6.50;76.80
1786;DHT22;890;48.158;11.540;2024-02-21T06:00:31;6.60;76.80
1786;DHT22;890;48.158;11.540;2024-02-21T06:02:57;6.40;76.60
1786;DHT22;890;48.158;11.540;2024-02-21T06:05:23;6.50;76.70
1786;DHT22;890;48.158;11.540;2024-02-21T06:07:49;6.50;76.60
1786;DHT22;890;48.158;11.540;2024-02-21T06:10:14;6.50;76.50
1786;DHT22;890;48.158;11.540;2024-02-21T06:12:40;6.50;76.50
1786;DHT22;890;48.158;11.540;2024-02-21T06:15:06;6.50;76.30
1786;DHT22;890;48.158;11.540;2024-02-21T06:17:31;6.40;76.20
1786;DHT22;890;48.158;11.540;2024-02-21T06:19:57;6.30;76.20
1786;DHT22;890;48.158;11.540;2024-02-21T06:22:23;6.20;76.40
1786;DHT22;890;48.158;11.540;2024-02-21T06:24:48;6.20;76.50
1786;DHT22;890;48.158;11.540;2024-02-21T06:27:15;6.30;76.70
1786;DHT22;890;48.158;11.540;2024-02-21T06:29:41;6.40;76.70
1786;DHT22;890;48.158;11.540;2024-02-21T06:32:07;6.40;76.50
1786;DHT22;890;48.158;11.540;2024-02-21T06:34:33;6.30;76.20
1786;DHT22;890;48.158;11.540;2024-02-21T06:36:59;6.30;76.50
1786;DHT22;890;48.158;11.540;2024-02-21T06:39:24;6.30;76.60
1786;DHT22;890;48.158;11.540;2024-02-21T06:41:50;6.30;76.50
1786;DHT22;890;48.158;11.540;2024-02-21T06:44:20;6.30;76.60
1786;DHT22;890;48.158;11.540;2024-02-21T06:46:46;6.20;76.50
1786;DHT22;890;48.158;11.540;2024-02-21T06:49:12;6.20;76.70
1786;DHT22;890;48.158;11.540;2024-02-21T06:51:44;6.30;76.80
1786;DHT22;890;48.158;11.540;2024-02-21T06:54:10;6.40;76.90
1786;DHT22;890;48.158;11.540;2024-02-21T06:56:37;6.40;76.60
1786;DHT22;890;48.158;11.540;2024-02-21T06:59:03;6.30;76.40
1786;DHT22;890;48.158;11.540;2024-02-21T07:01:31;6.30;76.60
1786;DHT22;890;48.158;11.540;2024-02-21T07:03:57;6.40;76.60
1786;DHT22;890;48.158;11.540;2024-02-21T07:06:23;6.40;76.40
1786;DHT22;890;48.158;11.540;2024-02-21T07:08:49;6.40;76.40
1786;DHT22;890;48.158;11.540;2024-02-21T07:11:14;6.50;76.50
1786;DHT22;890;48.158;11.540;2024-02-21T07:13:40;6.50;76.30
1786;DHT22;890;48.158;11.540;2024-02-21T07:16:06;6.40;76.20
1786;DHT22;890;48.158;11.540;2024-02-21T07:18:32;6.50;76.40
1786;DHT22;890;48.158;11.540;2024-02-21T07:20:58;6.60;76.50
1786;DHT22;890;48.158;11.540;2024-02-21T07:23:24;6.70;76.60
1786;DHT22;890;48.158;11.540;2024-02-21T07:25:49;6.80;76.30
1786;DHT22;890;48.158;11.540;2024-02-21T07:28:15;6.70;76.30
1786;DHT22;890;48.158;11.540;2024-02-21T07:30:42;6.90;76.70
1786;DHT22;890;48.158;11.540;2024-02-21T07:33:08;6.80;76.60
1786;DHT22;890;48.158;11.540;2024-02-21T07:35:33;6.90;76.80
1786;DHT22;890;48.158;11.540;2024-02-21T07:37:59;7.10;76.90
1786;DHT22;890;48.158;11.540;2024-02-21T07:40:24;7.10;76.80
1786;DHT22;890;48.158;11.540;2024-02-21T07:42:50;7.20;76.80
1786;DHT22;890;48.158;11.540;2024-02-21T07:45:16;7.30;76.50
1786;DHT22;890;48.158;11.540;2024-02-21T07:47:43;7.40;76.60
1786;DHT22;890;48.158;11.540;2024-02-21T07:50:09;7.40;76.50
1786;DHT22;890;48.158;11.540;2024-02-21T07:52:35;7.50;76.70
1786;DHT22;890;48.158;11.540;2024-02-21T07:55:00;7.60;77.20
1786;DHT22;890;48.158;11.540;2024-02-21T07:57:26;7.70;76.40
1786;DHT22;890;48.158;11.540;2024-02-21T07:59:52;7.80;76.70
1786;DHT22;890;48.158;11.540;2024-02-21T08:02:18;7.90;77.10
1786;DHT22;890;48.158;11.540;2024-02-21T08:04:43;7.90;77.00
1786;DHT22;890;48.158;11.540;2024-02-21T08:07:09;7.80;76.50
1786;DHT22;890;48.158;11.540;2024-02-21T08:09:35;7.80;76.20
1786;DHT22;890;48.158;11.540;2024-02-21T08:12:03;7.90;75.70
1786;DHT22;890;48.158;11.540;2024-02-21T08:14:29;7.90;74.70
1786;DHT22;890;48.158;11.540;2024-02-21T08:16:55;7.90;74.50
1786;DHT22;890;48.158;11.540;2024-02-21T08:19:21;8.00;74.60
1786;DHT22;890;48.158;11.540;2024-02-21T08:21:48;8.00;74.50
1786;DHT22;890;48.158;11.540;2024-02-21T08:24:14;8.20;74.40
1786;DHT22;890;48.158;11.540;2024-02-21T08:26:43;8.50;74.40
1786;DHT22;890;48.158;11.540;2024-02-21T08:29:12;8.40;73.80
1786;DHT22;890;48.158;11.540;2024-02-21T08:31:38;8.40;73.50
1786;DHT22;890;48.158;11.540;2024-02-21T08:34:04;8.40;73.70
1786;DHT22;890;48.158;11.540;2024-02-21T08:36:30;8.50;73.80
1786;DHT22;890;48.158;11.540;2024-02-21T08:38:57;8.60;73.70
1786;DHT22;890;48.158;11.540;2024-02-21T08:41:26;8.60;73.70
1786;DHT22;890;48.158;11.540;2024-02-21T08:43:53;8.90;73.60
1786;DHT22;890;48.158;11.540;2024-02-21T08:46:20;8.90;74.10
1786;DHT22;890;48.158;11.540;2024-02-21T08:48:46;9.00;74.50
1786;DHT22;890;48.158;11.540;2024-02-21T08:51:13;9.20;74.70
1786;DHT22;890;48.158;11.540;2024-02-21T08:53:39;9.30;74.80
1786;DHT22;890;48.158;11.540;2024-02-21T08:56:05;9.40;75.10
1786;DHT22;890;48.158;11.540;2024-02-21T08:58:31;9.60;79.60
1786;DHT22;890;48.158;11.540;2024-02-21T09:00:56;10.30;91.70
1786;DHT22;890;48.158;11.540;2024-02-21T09:03:22;11.40;99.90
1786;DHT22;890;48.158;11.540;2024-02-21T09:05:48;12.90;99.90
1786;DHT22;890;48.158;11.540;2024-02-21T09:08:14;14.60;99.90
1786;DHT22;890;48.158;11.540;2024-02-21T09:10:40;15.80;99.90
1786;DHT22;890;48.158;11.540;2024-02-21T09:13:05;17.10;99.90
1786;DHT22;890;48.158;11.540;2024-02-21T09:15:33;18.20;99.90
1786;DHT22;890;48.158;11.540;2024-02-21T09:17:58;18.90;99.90
1786;DHT22;890;48.158;11.540;2024-02-21T09:20:24;19.30;99.90
1786;DHT22;890;48.158;11.540;2024-02-21T09:22:50;19.50;99.90
1786;DHT22;890;48.158;11.540;2024-02-21T09:25:15;19.90;99.90
1786;DHT22;890;48.158;11.540;2024-02-21T09:27:43;20.30;99.90
1786;DHT22;890;48.158;11.540;2024-02-21T09:30:09;20.40;96.40
1786;DHT22;890;48.158;11.540;2024-02-21T09:32:35;20.20;94.70
1786;DHT22;890;48.158;11.540;2024-02-21T09:35:01;20.20;94.90
1786;DHT22;890;48.158;11.540;2024-02-21T09:37:27;20.20;92.90
1786;DHT22;890;48.158;11.540;2024-02-21T09:39:53;20.50;92.20
1786;DHT22;890;48.158;11.540;2024-02-21T09:42:20;20.70;91.20
1786;DHT22;890;48.158;11.540;2024-02-21T09:44:50;21.10;86.80
1786;DHT22;890;48.158;11.540;2024-02-21T09:47:24;21.20;83.90
1786;DHT22;890;48.158;11.540;2024-02-21T09:49:50;21.10;84.50
1786;DHT22;890;48.158;11.540;2024-02-21T09:52:19;21.60;87.30
1786;DHT22;890;48.158;11.540;2024-02-21T09:54:47;22.40;85.10
1786;DHT22;890;48.158;11.540;2024-02-21T09:57:14;22.10;84.50
1786;DHT22;890;48.158;11.540;2024-02-21T09:59:40;22.00;86.40
1786;DHT22;890;48.158;11.540;2024-02-21T10:02:07;22.50;85.10
1786;DHT22;890;48.158;11.540;2024-02-21T10:04:33;23.20;82.70
1786;DHT22;890;48.158;11.540;2024-02-21T10:06:59;23.50;79.50
1786;DHT22;890;48.158;11.540;2024-02-21T10:09:26;23.50;78.50
1786;DHT22;890;48.158;11.540;2024-02-21T10:11:55;23.50;71.80
1786;DHT22;890;48.158;11.540;2024-02-21T10:14:21;23.20;69.40
1786;DHT22;890;48.158;11.540;2024-02-21T10:16:48;22.70;71.30
1786;DHT22;890;48.158;11.540;2024-02-21T10:19:20;22.60;70.70
1786;DHT22;890;48.158;11.540;2024-02-21T10:22:09;22.50;67.60
1786;DHT22;890;48.158;11.540;2024-02-21T10:24:35;22.70;64.50
1786;DHT22;890;48.158;11.540;2024-02-21T10:27:05;22.80;65.10
1786;DHT22;890;48.158;11.540;2024-02-21T10:29:34;23.00;66.70
1786;DHT22;890;48.158;11.540;2024-02-21T10:32:12;23.70;66.00
1786;DHT22;890;48.158;11.540;2024-02-21T10:34:40;24.20;64.10
1786;DHT22;890;48.158;11.540;2024-02-21T10:37:07;24.70;62.70
1786;DHT22;890;48.158;11.540;2024-02-21T10:39:41;25.10;60.90
1786;DHT22;890;48.158;11.540;2024-02-21T10:42:06;25.30;59.10
1786;DHT22;890;48.158;11.540;2024-02-21T10:44:36;25.00;58.10
1786;DHT22;890;48.158;11.540;2024-02-21T10:47:07;24.70;56.20
1786;DHT22;890;48.158;11.540;2024-02-21T10:49:38;24.40;53.50
1786;DHT22;890;48.158;11.540;2024-02-21T10:52:18;24.00;50.30
1786;DHT22;890;48.158;11.540;2024-02-21T10:54:58;23.50;48.90
1786;DHT22;890;48.158;11.540;2024-02-21T10:57:26;23.10;48.60
1786;DHT22;890;48.158;11.540;2024-02-21T10:59:53;22.80;48.20
1786;DHT22;890;48.158;11.540;2024-02-21T11:02:20;22.20;47.50
1786;DHT22;890;48.158;11.540;2024-02-21T11:04:46;21.60;46.60
1786;DHT22;890;48.158;11.540;2024-02-21T11:07:13;21.20;44.60
1786;DHT22;890;48.158;11.540;2024-02-21T11:09:39;20.70;44.50
1786;DHT22;890;48.158;11.540;2024-02-21T11:12:06;20.50;45.40
1786;DHT22;890;48.158;11.540;2024-02-21T11:14:32;20.60;46.10
1786;DHT22;890;48.158;11.540;2024-02-21T11:16:58;20.60;45.70
1786;DHT22;890;48.158;11.540;2024-02-21T11:19:28;20.50;45.10
1786;DHT22;890;48.158;11.540;2024-02-21T11:21:58;20.40;44.60
1786;DHT22;890;48.158;11.540;2024-02-21T11:24:33;20.40;45.60
1786;DHT22;890;48.158;11.540;2024-02-21T11:27:12;20.10;44.60
1786;DHT22;890;48.158;11.540;2024-02-21T11:32:15;20.20;42.80
1786;DHT22;890;48.158;11.540;2024-02-21T11:34:52;20.10;42.20
1786;DHT22;890;48.158;11.540;2024-02-21T11:37:17;19.20;41.90
1786;DHT22;890;48.158;11.540;2024-02-21T11:39:43;18.80;42.20
1786;DHT22;890;48.158;11.540;2024-02-21T11:42:09;18.80;41.80
1786;DHT22;890;48.158;11.540;2024-02-21T11:44:36;18.90;41.20
1786;DHT22;890;48.158;11.540;2024-02-21T11:47:07;18.80;40.70
1786;DHT22;890;48.158;11.540;2024-02-21T11:49:37;18.70;40.60
1786;DHT22;890;48.158;11.540;2024-02-21T11:52:04;18.10;40.40
1786;DHT22;890;48.158;11.540;2024-02-21T11:54:32;17.70;40.70
1786;DHT22;890;48.158;11.540;2024-02-21T11:56:58;17.50;40.70
1786;DHT22;890;48.158;11.540;2024-02-21T11:59:24;17.60;41.20
1786;DHT22;890;48.158;11.540;2024-02-21T12:01:49;17.60;41.80
1786;DHT22;890;48.158;11.540;2024-02-21T12:04:18;17.60;42.80
1786;DHT22;890;48.158;11.540;2024-02-21T12:06:45;17.90;44.10
1786;DHT22;890;48.158;11.540;2024-02-21T12:09:16;18.00;44.10
1786;DHT22;890;48.158;11.540;2024-02-21T12:11:43;18.20;44.00
1786;DHT22;890;48.158;11.540;2024-02-21T12:14:09;18.30;44.10
1786;DHT22;890;48.158;11.540;2024-02-21T12:16:35;18.40;44.80
1786;DHT22;890;48.158;11.540;2024-02-21T12:19:04;18.60;46.10
1786;DHT22;890;48.158;11.540;2024-02-21T12:21:31;19.20;45.20
1786;DHT22;890;48.158;11.540;2024-02-21T12:23:58;19.50;45.50
1786;DHT22;890;48.158;11.540;2024-02-21T12:26:24;20.00;45.70
1786;DHT22;890;48.158;11.540;2024-02-21T12:28:51;20.70;45.10
1786;DHT22;890;48.158;11.540;2024-02-21T12:31:16;20.50;45.10
1786;DHT22;890;48.158;11.540;2024-02-21T12:33:43;20.30;45.70
1786;DHT22;890;48.158;11.540;2024-02-21T12:36:08;20.70;46.20
1786;DHT22;890;48.158;11.540;2024-02-21T12:38:37;20.90;45.70
1786;DHT22;890;48.158;11.540;2024-02-21T12:41:03;21.00;45.40
1786;DHT22;890;48.158;11.540;2024-02-21T12:43:28;21.10;42.80
1786;DHT22;890;48.158;11.540;2024-02-21T12:45:54;20.50;40.20
1786;DHT22;890;48.158;11.540;2024-02-21T12:48:20;19.90;38.60
1786;DHT22;890;48.158;11.540;2024-02-21T12:50:49;19.40;37.50
1786;DHT22;890;48.158;11.540;2024-02-21T12:53:18;18.90;36.50
1786;DHT22;890;48.158;11.540;2024-02-21T12:55:47;18.30;36.10
1786;DHT22;890;48.158;11.540;2024-02-21T12:58:14;17.90;36.00
1786;DHT22;890;48.158;11.540;2024-02-21T13:00:40;17.60;35.70
1786;DHT22;890;48.158;11.540;2024-02-21T13:03:05;17.40;35.70
1786;DHT22;890;48.158;11.540;2024-02-21T13:05:31;17.00;35.50
1786;DHT22;890;48.158;11.540;2024-02-21T13:07:58;16.80;35.60
1786;DHT22;890;48.158;11.540;2024-02-21T13:10:24;16.50;35.50
1786;DHT22;890;48.158;11.540;2024-02-21T13:12:49;16.30;35.50
1786;DHT22;890;48.158;11.540;2024-02-21T13:15:15;16.20;35.60
1786;DHT22;890;48.158;11.540;2024-02-21T13:17:46;16.20;35.60
1786;DHT22;890;48.158;11.540;2024-02-21T13:20:12;16.30;35.40
1786;DHT22;890;48.158;11.540;2024-02-21T13:22:38;16.30;35.40
1786;DHT22;890;48.158;11.540;2024-02-21T13:25:04;16.20;35.00
1786;DHT22;890;48.158;11.540;2024-02-21T13:27:33;16.00;35.20
1786;DHT22;890;48.158;11.540;2024-02-21T13:29:58;15.90;35.30
1786;DHT22;890;48.158;11.540;2024-02-21T13:32:25;15.90;35.40
1786;DHT22;890;48.158;11.540;2024-02-21T13:34:51;15.80;35.20
1786;DHT22;890;48.158;11.540;2024-02-21T13:37:18;15.80;35.40
1786;DHT22;890;48.158;11.540;2024-02-21T13:39:43;15.70;35.50
1786;DHT22;890;48.158;11.540;2024-02-21T13:42:09;15.80;35.50
1786;DHT22;890;48.158;11.540;2024-02-21T13:44:35;15.80;35.50
1786;DHT22;890;48.158;11.540;2024-02-21T13:47:02;15.80;35.50
1786;DHT22;890;48.158;11.540;2024-02-21T13:49:27;15.80;35.60
1786;DHT22;890;48.158;11.540;2024-02-21T13:51:54;15.80;35.70
1786;DHT22;890;48.158;11.540;2024-02-21T13:54:19;15.50;35.60
1786;DHT22;890;48.158;11.540;2024-02-21T13:56:46;15.40;35.70
1786;DHT22;890;48.158;11.540;2024-02-21T13:59:12;15.40;35.90
1786;DHT22;890;48.158;11.540;2024-02-21T14:01:41;15.50;35.90
1786;DHT22;890;48.158;11.540;2024-02-21T14:04:06;15.50;35.70
1786;DHT22;890;48.158;11.540;2024-02-21T14:06:32;15.60;35.60
1786;DHT22;890;48.158;11.540;2024-02-21T14:08:58;15.50;35.70
1786;DHT22;890;48.158;11.540;2024-02-21T14:11:23;15.60;35.90
1786;DHT22;890;48.158;11.540;2024-02-21T14:13:49;15.60;36.00
1786;DHT22;890;48.158;11.540;2024-02-21T14:16:15;15.60;36.10
1786;DHT22;890;48.158;11.540;2024-02-21T14:18:43;15.70;36.20
1786;DHT22;890;48.158;11.540;2024-02-21T14:21:10;15.70;36.20
1786;DHT22;890;48.158;11.540;2024-02-21T14:23:39;15.70;36.20
1786;DHT22;890;48.158;11.540;2024-02-21T14:26:05;15.60;36.10
1786;DHT22;890;48.158;11.540;2024-02-21T14:28:31;15.60;36.10
1786;DHT22;890;48.158;11.540;2024-02-21T14:30:59;15.60;36.10
1786;DHT22;890;48.158;11.540;2024-02-21T14:33:26;15.70;36.10
1786;DHT22;890;48.158;11.540;2024-02-21T14:35:52;15.60;36.20
1786;DHT22;890;48.158;11.540;2024-02-21T14:38:19;15.40;36.20
1786;DHT22;890;48.158;11.540;2024-02-21T14:40:44;15.40;36.30
1786;DHT22;890;48.158;11.540;2024-02-21T14:43:10;15.40;36.40
1786;DHT22;890;48.158;11.540;2024-02-21T14:45:36;15.40;36.40
1786;DHT22;890;48.158;11.540;2024-02-21T14:48:03;15.40;36.50
1786;DHT22;890;48.158;11.540;2024-02-21T14:50:29;15.40;36.50
1786;DHT22;890;48.158;11.540;2024-02-21T14:52:55;15.30;36.40
1786;DHT22;890;48.158;11.540;2024-02-21T14:55:20;15.20;36.40
1786;DHT22;890;48.158;11.540;2024-02-21T14:57:46;15.20;36.50
1786;DHT22;890;48.158;11.540;2024-02-21T15:00:12;15.10;36.50
1786;DHT22;890;48.158;11.540;2024-02-21T15:02:38;15.10;36.60
1786;DHT22;890;48.158;11.540;2024-02-21T15:05:04;15.10;36.80
1786;DHT22;890;48.158;11.540;2024-02-21T15:07:31;15.10;36.80
1786;DHT22;890;48.158;11.540;2024-02-21T15:09:57;15.10;36.80
1786;DHT22;890;48.158;11.540;2024-02-21T15:12:23;15.20;36.90
1786;DHT22;890;48.158;11.540;2024-02-21T15:14:49;15.20;36.80
1786;DHT22;890;48.158;11.540;2024-02-21T15:17:14;15.20;36.90
1786;DHT22;890;48.158;11.540;2024-02-21T15:19:40;15.10;36.80
1786;DHT22;890;48.158;11.540;2024-02-21T15:22:10;15.00;36.90
1786;DHT22;890;48.158;11.540;2024-02-21T15:24:37;14.90;37.10
1786;DHT22;890;48.158;11.540;2024-02-21T15:27:03;14.80;37.20
1786;DHT22;890;48.158;11.540;2024-02-21T15:29:29;14.70;37.10
1786;DHT22;890;48.158;11.540;2024-02-21T15:31:55;14.70;37.20
1786;DHT22;890;48.158;11.540;2024-02-21T15:34:21;14.70;37.20
1786;DHT22;890;48.158;11.540;2024-02-21T15:36:47;14.70;37.30
1786;DHT22;890;48.158;11.540;2024-02-21T15:39:12;14.70;37.30
1786;DHT22;890;48.158;11.540;2024-02-21T15:41:38;14.70;37.40
1786;DHT22;890;48.158;11.540;2024-02-21T15:44:04;14.70;37.50
1786;DHT22;890;48.158;11.540;2024-02-21T15:46:30;14.70;37.60
1786;DHT22;890;48.158;11.540;2024-02-21T15:49:03;14.60;37.60
1786;DHT22;890;48.158;11.540;2024-02-21T15:51:29;14.60;37.60
1786;DHT22;890;48.158;11.540;2024-02-21T15:53:59;14.50;37.60
1786;DHT22;890;48.158;11.540;2024-02-21T15:56:24;14.50;37.70
1786;DHT22;890;48.158;11.540;2024-02-21T15:58:50;14.50;37.80
1786;DHT22;890;48.158;11.540;2024-02-21T16:01:16;14.40;37.80
1786;DHT22;890;48.158;11.540;2024-02-21T16:03:42;14.40;38.00
1786;DHT22;890;48.158;11.540;2024-02-21T16:06:07;14.30;38.00
1786;DHT22;890;48.158;11.540;2024-02-21T16:08:34;14.30;38.10